< < Back
Terminal Aerodrome Forecast


Current Version              Previous Versions:   1  2  3  4  5  6  7  8  9  

Terminal Aerodrome Forecast

704
FTUS42 KFFC 270734 AAA
TAFMCN
TAF AMD
KMCN 270734Z 2708/2806 27009G18KT P6SM SCT080
     FM271200 31012G23KT P6SM SCT060
     FM280000 31007KT P6SM SKC=

Latest METAR

921
SAUS80 KWBC 272100 RRB
MTRMCN
METAR KMCN 272053Z 32013G19KT 10SM FEW060 11/M03 A3027 RMK AO2 SLP250
T01061028 53002


USA.gov is the U.S. government's official web portal to all federal, state and local government web resources and services.